sensor_id;sensor_type;location;lat;lon;timestamp;pressure;altitude;pressure_sealevel;temperature;humidity
46768;BME280;69007;48.978;18.066;2023-06-14T00:01:44;97321.00;;;13.52;79.47
46768;BME280;69007;48.978;18.066;2023-06-14T00:04:12;97302.66;;;13.34;80.62
46768;BME280;69007;48.978;18.066;2023-06-14T00:06:37;97321.38;;;13.45;80.94
46768;BME280;69007;48.978;18.066;2023-06-14T00:09:03;97314.81;;;13.47;80.95
46768;BME280;69007;48.978;18.066;2023-06-14T00:11:30;97311.22;;;13.46;80.87
46768;BME280;69007;48.978;18.066;2023-06-14T00:13:55;97314.22;;;13.50;80.34
46768;BME280;69007;48.978;18.066;2023-06-14T00:16:21;97313.38;;;13.49;79.64
46768;BME280;69007;48.978;18.066;2023-06-14T00:18:46;97300.00;;;13.48;78.40
46768;BME280;69007;48.978;18.066;2023-06-14T00:21:12;97311.88;;;13.62;78.32
46768;BME280;69007;48.978;18.066;2023-06-14T00:23:37;97298.34;;;13.52;78.03
46768;BME280;69007;48.978;18.066;2023-06-14T00:26:03;97318.72;;;13.59;78.45
46768;BME280;69007;48.978;18.066;2023-06-14T00:28:29;97322.72;;;13.48;80.37
46768;BME280;69007;48.978;18.066;2023-06-14T00:30:54;97318.13;;;13.43;81.02
46768;BME280;69007;48.978;18.066;2023-06-14T00:33:19;97320.41;;;13.31;80.61
46768;BME280;69007;48.978;18.066;2023-06-14T00:35:45;97297.03;;;13.20;80.84
46768;BME280;69007;48.978;18.066;2023-06-14T00:38:10;97304.91;;;13.26;81.27
46768;BME280;69007;48.978;18.066;2023-06-14T00:40:35;97330.81;;;13.29;81.02
46768;BME280;69007;48.978;18.066;2023-06-14T00:43:01;97325.41;;;13.24;81.21
46768;BME280;69007;48.978;18.066;2023-06-14T00:45:26;97315.84;;;13.26;81.97
46768;BME280;69007;48.978;18.066;2023-06-14T00:47:52;97307.56;;;13.32;82.15
46768;BME280;69007;48.978;18.066;2023-06-14T00:50:20;97309.75;;;13.30;81.72
46768;BME280;69007;48.978;18.066;2023-06-14T00:52:48;97303.25;;;13.25;82.08
46768;BME280;69007;48.978;18.066;2023-06-14T00:55:14;97308.84;;;13.15;82.63
46768;BME280;69007;48.978;18.066;2023-06-14T00:57:40;97300.44;;;13.06;83.17
46768;BME280;69007;48.978;18.066;2023-06-14T01:00:06;97309.66;;;13.16;83.12
46768;BME280;69007;48.978;18.066;2023-06-14T01:02:38;97311.28;;;13.17;82.99
46768;BME280;69007;48.978;18.066;2023-06-14T01:05:04;97296.63;;;13.07;83.54
46768;BME280;69007;48.978;18.066;2023-06-14T01:08:40;97304.03;;;13.07;86.35
46768;BME280;69007;48.978;18.066;2023-06-14T01:11:10;97300.84;;;12.95;85.73
46768;BME280;69007;48.978;18.066;2023-06-14T01:13:43;97282.41;;;12.81;85.75
46768;BME280;69007;48.978;18.066;2023-06-14T01:16:11;97287.03;;;12.86;83.21
46768;BME280;69007;48.978;18.066;2023-06-14T01:18:37;97287.78;;;12.91;83.78
46768;BME280;69007;48.978;18.066;2023-06-14T01:21:03;97282.88;;;12.88;84.14
46768;BME280;69007;48.978;18.066;2023-06-14T01:23:31;97298.13;;;12.95;84.32
46768;BME280;69007;48.978;18.066;2023-06-14T01:26:00;97298.97;;;12.95;84.58
46768;BME280;69007;48.978;18.066;2023-06-14T01:28:28;97297.72;;;12.82;84.94
46768;BME280;69007;48.978;18.066;2023-06-14T01:30:59;97307.78;;;12.87;86.16
46768;BME280;69007;48.978;18.066;2023-06-14T01:33:27;97306.75;;;12.78;86.17
46768;BME280;69007;48.978;18.066;2023-06-14T01:35:54;97313.03;;;12.78;86.56
46768;BME280;69007;48.978;18.066;2023-06-14T01:38:25;97309.25;;;12.74;87.42
46768;BME280;69007;48.978;18.066;2023-06-14T01:40:51;97290.75;;;12.66;86.72
46768;BME280;69007;48.978;18.066;2023-06-14T01:43:18;97305.13;;;12.77;86.79
46768;BME280;69007;48.978;18.066;2023-06-14T01:45:46;97313.13;;;12.68;87.69
46768;BME280;69007;48.978;18.066;2023-06-14T01:48:13;97293.00;;;12.59;87.47
46768;BME280;69007;48.978;18.066;2023-06-14T01:50:38;97306.34;;;12.60;87.38
46768;BME280;69007;48.978;18.066;2023-06-14T01:53:07;97312.88;;;12.64;88.65
46768;BME280;69007;48.978;18.066;2023-06-14T01:55:33;97292.25;;;12.53;88.05
46768;BME280;69007;48.978;18.066;2023-06-14T01:58:02;97287.34;;;12.50;88.26
46768;BME280;69007;48.978;18.066;2023-06-14T02:00:28;97303.41;;;12.57;87.60
46768;BME280;69007;48.978;18.066;2023-06-14T02:02:53;97298.50;;;12.53;88.16
46768;BME280;69007;48.978;18.066;2023-06-14T02:05:18;97302.97;;;12.44;88.75
46768;BME280;69007;48.978;18.066;2023-06-14T02:07:45;97281.50;;;12.32;88.34
46768;BME280;69007;48.978;18.066;2023-06-14T02:10:11;97262.19;;;12.24;88.59
46768;BME280;69007;48.978;18.066;2023-06-14T02:12:37;97295.09;;;12.38;88.19
46768;BME280;69007;48.978;18.066;2023-06-14T02:15:02;97306.06;;;12.27;89.19
46768;BME280;69007;48.978;18.066;2023-06-14T02:17:29;97300.91;;;12.26;90.96
46768;BME280;69007;48.978;18.066;2023-06-14T02:19:54;97287.09;;;12.12;90.99
46768;BME280;69007;48.978;18.066;2023-06-14T02:22:22;97295.84;;;12.09;91.34
46768;BME280;69007;48.978;18.066;2023-06-14T02:24:48;97292.59;;;12.07;91.72
46768;BME280;69007;48.978;18.066;2023-06-14T02:27:14;97307.59;;;12.04;91.93
46768;BME280;69007;48.978;18.066;2023-06-14T02:29:39;97304.59;;;12.06;91.53
46768;BME280;69007;48.978;18.066;2023-06-14T02:32:05;97304.06;;;12.04;91.92
46768;BME280;69007;48.978;18.066;2023-06-14T02:34:33;97286.66;;;11.94;91.44
46768;BME280;69007;48.978;18.066;2023-06-14T02:36:59;97300.50;;;12.08;91.40
46768;BME280;69007;48.978;18.066;2023-06-14T02:39:24;97286.97;;;11.93;91.71
46768;BME280;69007;48.978;18.066;2023-06-14T02:41:50;97308.72;;;12.03;92.19
46768;BME280;69007;48.978;18.066;2023-06-14T02:44:17;97294.56;;;11.96;92.17
46768;BME280;69007;48.978;18.066;2023-06-14T02:46:44;97305.16;;;12.03;92.22
46768;BME280;69007;48.978;18.066;2023-06-14T02:49:10;97293.22;;;11.93;92.06
46768;BME280;69007;48.978;18.066;2023-06-14T02:51:36;97317.44;;;12.05;92.96
46768;BME280;69007;48.978;18.066;2023-06-14T02:54:01;97312.25;;;12.04;92.74
46768;BME280;69007;48.978;18.066;2023-06-14T02:56:28;97310.31;;;12.09;92.63
46768;BME280;69007;48.978;18.066;2023-06-14T02:58:54;97306.72;;;12.14;92.22
46768;BME280;69007;48.978;18.066;2023-06-14T03:01:20;97295.13;;;11.98;92.22
46768;BME280;69007;48.978;18.066;2023-06-14T03:03:47;97291.56;;;11.97;91.59
46768;BME280;69007;48.978;18.066;2023-06-14T03:06:12;97294.19;;;12.13;90.30
46768;BME280;69007;48.978;18.066;2023-06-14T03:08:40;97293.00;;;12.29;89.17
46768;BME280;69007;48.978;18.066;2023-06-14T03:11:07;97304.25;;;12.52;88.18
46768;BME280;69007;48.978;18.066;2023-06-14T03:13:33;97297.13;;;12.56;88.00
46768;BME280;69007;48.978;18.066;2023-06-14T03:15:58;97303.41;;;12.86;86.03
46768;BME280;69007;48.978;18.066;2023-06-14T03:18:25;97306.84;;;13.21;84.93
46768;BME280;69007;48.978;18.066;2023-06-14T03:20:52;97287.06;;;13.34;84.55
46768;BME280;69007;48.978;18.066;2023-06-14T03:23:17;97302.78;;;13.67;84.22
46768;BME280;69007;48.978;18.066;2023-06-14T03:25:42;97287.06;;;13.77;81.07
46768;BME280;69007;48.978;18.066;2023-06-14T03:28:08;97303.16;;;14.17;79.90
46768;BME280;69007;48.978;18.066;2023-06-14T03:30:33;97293.06;;;14.17;80.06
46768;BME280;69007;48.978;18.066;2023-06-14T03:32:59;97296.22;;;14.44;78.37
46768;BME280;69007;48.978;18.066;2023-06-14T03:35:27;97286.66;;;14.60;78.20
46768;BME280;69007;48.978;18.066;2023-06-14T03:37:52;97291.38;;;14.87;77.14
46768;BME280;69007;48.978;18.066;2023-06-14T03:40:18;97291.31;;;15.06;76.13
46768;BME280;69007;48.978;18.066;2023-06-14T03:42:45;97300.97;;;15.32;75.90
46768;BME280;69007;48.978;18.066;2023-06-14T03:45:10;97303.59;;;15.37;75.89
46768;BME280;69007;48.978;18.066;2023-06-14T03:47:36;97284.69;;;15.07;77.59
46768;BME280;69007;48.978;18.066;2023-06-14T03:50:02;97282.56;;;15.32;76.05
46768;BME280;69007;48.978;18.066;2023-06-14T03:52:29;97303.19;;;15.71;75.36
46768;BME280;69007;48.978;18.066;2023-06-14T03:54:54;97316.06;;;15.98;72.64
46768;BME280;69007;48.978;18.066;2023-06-14T03:57:19;97302.50;;;15.79;74.98
46768;BME280;69007;48.978;18.066;2023-06-14T03:59:45;97302.19;;;15.81;74.63
46768;BME280;69007;48.978;18.066;2023-06-14T04:02:12;97314.16;;;15.85;74.84
46768;BME280;69007;48.978;18.066;2023-06-14T04:04:40;97318.59;;;15.95;75.32
46768;BME280;69007;48.978;18.066;2023-06-14T04:07:12;97305.19;;;15.93;75.87
46768;BME280;69007;48.978;18.066;2023-06-14T04:09:38;97314.88;;;16.13;76.13
46768;BME280;69007;48.978;18.066;2023-06-14T04:12:04;97327.69;;;16.18;76.29
46768;BME280;69007;48.978;18.066;2023-06-14T04:14:30;97304.44;;;15.79;78.12
46768;BME280;69007;48.978;18.066;2023-06-14T04:16:58;97323.97;;;16.00;78.35
46768;BME280;69007;48.978;18.066;2023-06-14T04:19:24;97312.88;;;16.05;77.98
46768;BME280;69007;48.978;18.066;2023-06-14T04:21:49;97331.22;;;16.32;77.66
46768;BME280;69007;48.978;18.066;2023-06-14T04:24:15;97331.47;;;16.45;77.74
46768;BME280;69007;48.978;18.066;2023-06-14T04:26:44;97326.47;;;16.69;76.27
46768;BME280;69007;48.978;18.066;2023-06-14T04:29:11;97342.31;;;16.86;76.23
46768;BME280;69007;48.978;18.066;2023-06-14T04:31:40;97344.31;;;17.26;75.13
46768;BME280;69007;48.978;18.066;2023-06-14T04:34:05;97348.47;;;17.55;71.29
46768;BME280;69007;48.978;18.066;2023-06-14T04:36:35;97347.81;;;17.49;67.83
46768;BME280;69007;48.978;18.066;2023-06-14T04:39:04;97341.50;;;17.48;68.26
46768;BME280;69007;48.978;18.066;2023-06-14T04:41:30;97352.28;;;17.85;67.97
46768;BME280;69007;48.978;18.066;2023-06-14T04:43:57;97357.13;;;18.28;65.38
46768;BME280;69007;48.978;18.066;2023-06-14T04:46:23;97338.63;;;18.64;64.84
46768;BME280;69007;48.978;18.066;2023-06-14T04:48:49;97335.34;;;19.05;62.69
46768;BME280;69007;48.978;18.066;2023-06-14T04:51:15;97337.94;;;19.58;60.85
46768;BME280;69007;48.978;18.066;2023-06-14T04:53:41;97355.75;;;20.29;57.32
46768;BME280;69007;48.978;18.066;2023-06-14T04:56:07;97342.69;;;20.17;57.82
46768;BME280;69007;48.978;18.066;2023-06-14T04:58:32;97356.22;;;20.52;56.20
46768;BME280;69007;48.978;18.066;2023-06-14T05:00:57;97337.09;;;20.25;54.61
46768;BME280;69007;48.978;18.066;2023-06-14T05:03:25;97358.47;;;21.13;53.36
46768;BME280;69007;48.978;18.066;2023-06-14T05:05:50;97354.44;;;21.10;52.87
46768;BME280;69007;48.978;18.066;2023-06-14T05:08:18;97366.88;;;20.62;54.42
46768;BME280;69007;48.978;18.066;2023-06-14T05:10:43;97356.34;;;20.55;54.47
46768;BME280;69007;48.978;18.066;2023-06-14T05:13:09;97357.56;;;21.67;51.67
46768;BME280;69007;48.978;18.066;2023-06-14T05:15:35;97358.38;;;22.70;48.87
46768;BME280;69007;48.978;18.066;2023-06-14T05:18:01;97369.56;;;21.59;49.71
46768;BME280;69007;48.978;18.066;2023-06-14T05:20:26;97348.53;;;20.78;53.18
46768;BME280;69007;48.978;18.066;2023-06-14T05:22:55;97366.34;;;20.48;53.82
46768;BME280;69007;48.978;18.066;2023-06-14T05:25:22;97363.34;;;19.81;55.88
46768;BME280;69007;48.978;18.066;2023-06-14T05:27:48;97373.16;;;20.92;54.10
46768;BME280;69007;48.978;18.066;2023-06-14T05:30:14;97366.47;;;21.27;53.26
46768;BME280;69007;48.978;18.066;2023-06-14T05:32:40;97369.38;;;20.97;54.18
46768;BME280;69007;48.978;18.066;2023-06-14T05:35:06;97356.13;;;20.69;54.40
46768;BME280;69007;48.978;18.066;2023-06-14T05:37:31;97365.97;;;21.12;53.58
46768;BME280;69007;48.978;18.066;2023-06-14T05:39:57;97372.63;;;23.25;48.84
46768;BME280;69007;48.978;18.066;2023-06-14T05:42:22;97375.00;;;26.24;42.29
46768;BME280;69007;48.978;18.066;2023-06-14T05:44:48;97377.16;;;28.63;38.90
46768;BME280;69007;48.978;18.066;2023-06-14T05:47:13;97381.50;;;29.59;36.23
46768;BME280;69007;48.978;18.066;2023-06-14T05:49:39;97362.66;;;30.57;34.09
46768;BME280;69007;48.978;18.066;2023-06-14T05:52:04;97387.59;;;31.58;32.36
46768;BME280;69007;48.978;18.066;2023-06-14T05:54:30;97382.84;;;31.37;32.39
46768;BME280;69007;48.978;18.066;2023-06-14T05:56:55;97375.84;;;32.23;30.79
46768;BME280;69007;48.978;18.066;2023-06-14T05:59:20;97379.69;;;31.91;31.15
46768;BME280;69007;48.978;18.066;2023-06-14T06:01:46;97374.25;;;32.22;30.42
46768;BME280;69007;48.978;18.066;2023-06-14T06:04:11;97390.03;;;31.45;30.50
46768;BME280;69007;48.978;18.066;2023-06-14T06:06:36;97375.13;;;30.56;30.55
46768;BME280;69007;48.978;18.066;2023-06-14T06:09:02;97377.31;;;31.22;30.32
46768;BME280;69007;48.978;18.066;2023-06-14T06:11:27;97379.41;;;30.93;29.81
46768;BME280;69007;48.978;18.066;2023-06-14T06:13:53;97363.31;;;31.78;30.38
46768;BME280;69007;48.978;18.066;2023-06-14T06:16:18;97365.31;;;32.72;29.45
46768;BME280;69007;48.978;18.066;2023-06-14T06:18:44;97374.00;;;33.19;28.60
46768;BME280;69007;48.978;18.066;2023-06-14T06:21:09;97394.72;;;31.73;29.57
46768;BME280;69007;48.978;18.066;2023-06-14T06:23:34;97381.53;;;30.60;30.49
46768;BME280;69007;48.978;18.066;2023-06-14T06:26:00;97388.97;;;29.12;32.81
46768;BME280;69007;48.978;18.066;2023-06-14T06:28:26;97384.84;;;27.32;34.86
46768;BME280;69007;48.978;18.066;2023-06-14T06:30:51;97395.09;;;26.34;36.35
46768;BME280;69007;48.978;18.066;2023-06-14T06:33:17;97380.59;;;25.32;37.44
46768;BME280;69007;48.978;18.066;2023-06-14T06:35:42;97401.84;;;25.40;37.51
46768;BME280;69007;48.978;18.066;2023-06-14T06:38:08;97404.19;;;24.99;38.08
46768;BME280;69007;48.978;18.066;2023-06-14T06:40:35;97390.84;;;24.18;39.70
46768;BME280;69007;48.978;18.066;2023-06-14T06:43:02;97396.84;;;23.56;41.63
46768;BME280;69007;48.978;18.066;2023-06-14T06:45:27;97384.78;;;22.92;43.05
46768;BME280;69007;48.978;18.066;2023-06-14T06:47:53;97390.56;;;22.46;44.76
46768;BME280;69007;48.978;18.066;2023-06-14T06:50:19;97404.06;;;22.11;44.56
46768;BME280;69007;48.978;18.066;2023-06-14T06:52:45;97390.94;;;21.83;46.79
46768;BME280;69007;48.978;18.066;2023-06-14T06:55:10;97391.31;;;21.48;45.50
46768;BME280;69007;48.978;18.066;2023-06-14T06:57:36;97403.38;;;21.77;44.58
46768;BME280;69007;48.978;18.066;2023-06-14T07:00:02;97399.47;;;21.44;45.66
46768;BME280;69007;48.978;18.066;2023-06-14T07:02:29;97388.88;;;21.46;46.83
46768;BME280;69007;48.978;18.066;2023-06-14T07:04:56;97404.09;;;21.40;48.24
46768;BME280;69007;48.978;18.066;2023-06-14T07:07:22;97411.44;;;21.24;49.91
46768;BME280;69007;48.978;18.066;2023-06-14T07:09:47;97411.34;;;20.99;48.52
46768;BME280;69007;48.978;18.066;2023-06-14T07:12:12;97417.84;;;21.15;47.62
46768;BME280;69007;48.978;18.066;2023-06-14T07:14:38;97408.53;;;21.20;47.05
46768;BME280;69007;48.978;18.066;2023-06-14T07:17:04;97405.91;;;21.36;47.15
46768;BME280;69007;48.978;18.066;2023-06-14T07:19:29;97393.84;;;21.07;46.96
46768;BME280;69007;48.978;18.066;2023-06-14T07:21:55;97406.22;;;21.22;48.93
46768;BME280;69007;48.978;18.066;2023-06-14T07:24:21;97391.69;;;20.92;50.21
46768;BME280;69007;48.978;18.066;2023-06-14T07:26:46;97411.25;;;20.87;50.32
46768;BME280;69007;48.978;18.066;2023-06-14T07:29:13;97391.94;;;20.66;49.30
46768;BME280;69007;48.978;18.066;2023-06-14T07:31:38;97417.19;;;21.19;50.31
46768;BME280;69007;48.978;18.066;2023-06-14T07:34:04;97387.53;;;20.86;50.43
46768;BME280;69007;48.978;18.066;2023-06-14T07:36:29;97411.44;;;21.24;51.01
46768;BME280;69007;48.978;18.066;2023-06-14T07:38:55;97414.16;;;20.90;50.51
46768;BME280;69007;48.978;18.066;2023-06-14T07:41:21;97415.03;;;20.61;51.73
46768;BME280;69007;48.978;18.066;2023-06-14T07:43:47;97400.59;;;20.34;51.47
46768;BME280;69007;48.978;18.066;2023-06-14T07:46:12;97410.16;;;20.58;50.88
46768;BME280;69007;48.978;18.066;2023-06-14T07:48:38;97413.88;;;20.62;53.03
46768;BME280;69007;48.978;18.066;2023-06-14T07:51:03;97417.97;;;20.65;52.37
46768;BME280;69007;48.978;18.066;2023-06-14T07:53:29;97421.84;;;20.64;51.14
46768;BME280;69007;48.978;18.066;2023-06-14T07:55:56;97430.25;;;20.76;52.98
46768;BME280;69007;48.978;18.066;2023-06-14T07:58:21;97426.94;;;20.83;50.97
46768;BME280;69007;48.978;18.066;2023-06-14T08:00:47;97424.09;;;20.91;51.01
46768;BME280;69007;48.978;18.066;2023-06-14T08:03:12;97420.09;;;20.80;51.85
46768;BME280;69007;48.978;18.066;2023-06-14T08:05:37;97428.34;;;20.89;50.41
46768;BME280;69007;48.978;18.066;2023-06-14T08:08:03;97424.16;;;20.83;50.00
46768;BME280;69007;48.978;18.066;2023-06-14T08:10:28;97423.53;;;20.77;50.66
46768;BME280;69007;48.978;18.066;2023-06-14T08:12:54;97414.22;;;21.03;49.41
46768;BME280;69007;48.978;18.066;2023-06-14T08:15:19;97421.16;;;21.42;48.38
46768;BME280;69007;48.978;18.066;2023-06-14T08:17:45;97418.22;;;21.47;49.81
46768;BME280;69007;48.978;18.066;2023-06-14T08:20:11;97416.75;;;21.41;49.35
46768;BME280;69007;48.978;18.066;2023-06-14T08:22:37;97430.06;;;21.81;48.95
46768;BME280;69007;48.978;18.066;2023-06-14T08:25:03;97424.50;;;21.81;49.85
46768;BME280;69007;48.978;18.066;2023-06-14T08:27:29;97440.22;;;21.89;51.04
46768;BME280;69007;48.978;18.066;2023-06-14T08:29:55;97433.25;;;21.71;50.25
46768;BME280;69007;48.978;18.066;2023-06-14T08:32:21;97418.06;;;21.44;50.10
46768;BME280;69007;48.978;18.066;2023-06-14T08:34:47;97411.56;;;21.40;49.70
46768;BME280;69007;48.978;18.066;2023-06-14T08:37:12;97432.50;;;21.49;50.28
46768;BME280;69007;48.978;18.066;2023-06-14T08:39:38;97400.94;;;21.29;49.98
46768;BME280;69007;48.978;18.066;2023-06-14T08:42:05;97425.38;;;21.61;50.72
46768;BME280;69007;48.978;18.066;2023-06-14T08:44:32;97431.34;;;21.96;51.74
46768;BME280;69007;48.978;18.066;2023-06-14T08:46:59;97426.00;;;22.53;50.47
46768;BME280;69007;48.978;18.066;2023-06-14T08:49:25;97431.41;;;22.61;48.02
46768;BME280;69007;48.978;18.066;2023-06-14T08:51:57;97421.63;;;22.52;50.30
46768;BME280;69007;48.978;18.066;2023-06-14T08:54:25;97419.38;;;22.82;48.80
46768;BME280;69007;48.978;18.066;2023-06-14T08:56:53;97412.19;;;22.81;50.09
46768;BME280;69007;48.978;18.066;2023-06-14T08:59:19;97427.22;;;22.80;49.49
46768;BME280;69007;48.978;18.066;2023-06-14T09:01:46;97417.25;;;22.91;49.87
46768;BME280;69007;48.978;18.066;2023-06-14T09:04:13;97419.72;;;22.68;48.99
46768;BME280;69007;48.978;18.066;2023-06-14T09:06:38;97416.41;;;22.62;50.56
46768;BME280;69007;48.978;18.066;2023-06-14T09:09:03;97429.47;;;22.25;50.29
46768;BME280;69007;48.978;18.066;2023-06-14T09:11:30;97408.69;;;22.06;50.37
46768;BME280;69007;48.978;18.066;2023-06-14T09:13:55;97413.31;;;22.02;51.84
46768;BME280;69007;48.978;18.066;2023-06-14T09:16:21;97431.53;;;21.66;52.39
46768;BME280;69007;48.978;18.066;2023-06-14T09:18:47;97428.41;;;21.68;52.22
46768;BME280;69007;48.978;18.066;2023-06-14T09:21:14;97401.06;;;21.33;51.74
46768;BME280;69007;48.978;18.066;2023-06-14T09:23:44;97419.25;;;21.22;52.05
46768;BME280;69007;48.978;18.066;2023-06-14T09:26:12;97424.94;;;21.25;53.35
46768;BME280;69007;48.978;18.066;2023-06-14T09:28:48;97419.84;;;21.48;52.61
46768;BME280;69007;48.978;18.066;2023-06-14T09:31:15;97428.25;;;21.52;52.84
46768;BME280;69007;48.978;18.066;2023-06-14T09:33:42;97415.44;;;21.14;50.46
46768;BME280;69007;48.978;18.066;2023-06-14T09:36:15;97412.88;;;21.09;52.55
46768;BME280;69007;48.978;18.066;2023-06-14T09:38:42;97412.41;;;21.40;51.21
46768;BME280;69007;48.978;18.066;2023-06-14T09:41:07;97428.63;;;21.63;50.59
46768;BME280;69007;48.978;18.066;2023-06-14T09:43:33;97423.09;;;21.75;48.64
46768;BME280;69007;48.978;18.066;2023-06-14T09:46:00;97421.16;;;22.00;44.44
46768;BME280;69007;48.978;18.066;2023-06-14T09:48:26;97424.63;;;22.22;44.67
46768;BME280;69007;48.978;18.066;2023-06-14T09:50:51;97424.97;;;22.45;44.33
46768;BME280;69007;48.978;18.066;2023-06-14T09:53:21;97422.59;;;22.72;44.03
46768;BME280;69007;48.978;18.066;2023-06-14T09:55:49;97421.06;;;22.87;43.98
46768;BME280;69007;48.978;18.066;2023-06-14T09:58:16;97414.34;;;23.00;45.56
46768;BME280;69007;48.978;18.066;2023-06-14T10:00:41;97414.47;;;22.91;43.33
46768;BME280;69007;48.978;18.066;2023-06-14T10:03:16;97424.31;;;22.89;43.92
46768;BME280;69007;48.978;18.066;2023-06-14T10:05:47;97419.25;;;22.78;43.10
46768;BME280;69007;48.978;18.066;2023-06-14T10:08:14;97393.72;;;22.73;42.69
46768;BME280;69007;48.978;18.066;2023-06-14T10:10:42;97420.50;;;22.93;41.55
46768;BME280;69007;48.978;18.066;2023-06-14T10:13:08;97408.47;;;22.89;42.00
46768;BME280;69007;48.978;18.066;2023-06-14T10:18:31;97419.88;;;23.00;39.51
46768;BME280;69007;48.978;18.066;2023-06-14T10:23:38;97406.13;;;22.63;43.51
46768;BME280;69007;48.978;18.066;2023-06-14T10:26:04;97406.38;;;22.58;43.10
46768;BME280;69007;48.978;18.066;2023-06-14T10:28:30;97423.69;;;22.67;44.61
46768;BME280;69007;48.978;18.066;2023-06-14T10:31:10;97396.47;;;22.85;43.96
46768;BME280;69007;48.978;18.066;2023-06-14T10:33:48;97404.13;;;22.76;45.17
46768;BME280;69007;48.978;18.066;2023-06-14T10:41:28;97413.41;;;22.96;44.64
46768;BME280;69007;48.978;18.066;2023-06-14T10:46:53;97417.63;;;22.77;45.72
46768;BME280;69007;48.978;18.066;2023-06-14T10:49:19;97409.16;;;22.98;43.90
46768;BME280;69007;48.978;18.066;2023-06-14T10:51:49;97398.41;;;22.97;44.88
46768;BME280;69007;48.978;18.066;2023-06-14T10:54:16;97407.97;;;22.99;44.63
46768;BME280;69007;48.978;18.066;2023-06-14T10:56:52;97384.97;;;22.71;44.99
46768;BME280;69007;48.978;18.066;2023-06-14T10:59:19;97394.06;;;22.71;46.24
46768;BME280;69007;48.978;18.066;2023-06-14T11:04:52;97401.50;;;22.55;45.65
46768;BME280;69007;48.978;18.066;2023-06-14T11:10:36;97394.78;;;22.68;45.08
46768;BME280;69007;48.978;18.066;2023-06-14T11:13:06;97396.59;;;22.76;46.29
46768;BME280;69007;48.978;18.066;2023-06-14T11:15:32;97399.03;;;22.78;45.50
46768;BME280;69007;48.978;18.066;2023-06-14T11:18:05;97381.13;;;22.75;42.04
46768;BME280;69007;48.978;18.066;2023-06-14T11:20:32;97378.72;;;22.74;44.91
46768;BME280;69007;48.978;18.066;2023-06-14T11:22:58;97371.34;;;22.66;43.53
46768;BME280;69007;48.978;18.066;2023-06-14T11:25:24;97387.97;;;22.66;44.78
46768;BME280;69007;48.978;18.066;2023-06-14T11:27:50;97382.03;;;22.79;45.11
46768;BME280;69007;48.978;18.066;2023-06-14T11:30:16;97384.03;;;22.95;44.77
46768;BME280;69007;48.978;18.066;2023-06-14T11:32:42;97385.78;;;22.99;44.22
46768;BME280;69007;48.978;18.066;2023-06-14T11:35:08;97390.59;;;23.15;46.21
46768;BME280;69007;48.978;18.066;2023-06-14T11:37:35;97384.47;;;23.09;42.93
46768;BME280;69007;48.978;18.066;2023-06-14T11:40:03;97383.16;;;22.91;42.38
46768;BME280;69007;48.978;18.066;2023-06-14T11:42:31;97382.47;;;22.81;42.31
46768;BME280;69007;48.978;18.066;2023-06-14T11:44:56;97384.19;;;22.86;44.19
46768;BME280;69007;48.978;18.066;2023-06-14T11:47:22;97387.53;;;22.51;44.31
46768;BME280;69007;48.978;18.066;2023-06-14T11:49:48;97370.31;;;22.58;46.44
46768;BME280;69007;48.978;18.066;2023-06-14T11:52:14;97384.25;;;22.74;46.36
46768;BME280;69007;48.978;18.066;2023-06-14T11:54:40;97379.31;;;22.95;45.40
46768;BME280;69007;48.978;18.066;2023-06-14T11:57:07;97385.78;;;22.99;44.44
46768;BME280;69007;48.978;18.066;2023-06-14T11:59:38;97376.31;;;22.60;45.28
46768;BME280;69007;48.978;18.066;2023-06-14T12:02:04;97371.66;;;22.11;44.69
46768;BME280;69007;48.978;18.066;2023-06-14T12:04:29;97381.56;;;22.24;45.28
46768;BME280;69007;48.978;18.066;2023-06-14T12:06:55;97373.59;;;22.48;45.42
46768;BME280;69007;48.978;18.066;2023-06-14T12:09:23;97373.53;;;22.60;44.41
46768;BME280;69007;48.978;18.066;2023-06-14T12:11:49;97376.47;;;22.79;44.70
46768;BME280;69007;48.978;18.066;2023-06-14T12:14:15;97377.00;;;22.97;43.23
46768;BME280;69007;48.978;18.066;2023-06-14T12:16:41;97375.25;;;22.77;43.23
46768;BME280;69007;48.978;18.066;2023-06-14T12:19:13;97390.69;;;22.78;43.93
46768;BME280;69007;48.978;18.066;2023-06-14T12:21:39;97381.66;;;22.93;42.82
46768;BME280;69007;48.978;18.066;2023-06-14T12:24:07;97385.06;;;23.03;43.57
46768;BME280;69007;48.978;18.066;2023-06-14T12:26:33;97370.84;;;23.04;43.19
46768;BME280;69007;48.978;18.066;2023-06-14T12:28:59;97365.81;;;22.94;43.85
46768;BME280;69007;48.978;18.066;2023-06-14T12:31:25;97383.34;;;22.98;44.51
46768;BME280;69007;48.978;18.066;2023-06-14T12:33:51;97382.34;;;22.90;44.90
46768;BME280;69007;48.978;18.066;2023-06-14T12:36:17;97383.94;;;22.91;43.72
46768;BME280;69007;48.978;18.066;2023-06-14T12:38:42;97365.81;;;22.94;42.29
46768;BME280;69007;48.978;18.066;2023-06-14T12:41:08;97374.31;;;23.01;43.20
46768;BME280;69007;48.978;18.066;2023-06-14T12:43:33;97368.41;;;23.03;43.70
46768;BME280;69007;48.978;18.066;2023-06-14T12:46:00;97370.81;;;23.16;44.27
46768;BME280;69007;48.978;18.066;2023-06-14T12:48:25;97386.88;;;23.23;43.98
46768;BME280;69007;48.978;18.066;2023-06-14T12:50:52;97379.50;;;23.15;44.09
46768;BME280;69007;48.978;18.066;2023-06-14T12:53:18;97380.41;;;23.19;44.93
46768;BME280;69007;48.978;18.066;2023-06-14T12:55:43;97358.28;;;23.07;45.01
46768;BME280;69007;48.978;18.066;2023-06-14T12:58:09;97400.69;;;23.07;46.19
46768;BME280;69007;48.978;18.066;2023-06-14T13:00:37;97370.56;;;22.93;45.96
46768;BME280;69007;48.978;18.066;2023-06-14T13:03:03;97376.75;;;23.03;45.89
46768;BME280;69007;48.978;18.066;2023-06-14T13:05:28;97361.25;;;23.30;44.55
46768;BME280;69007;48.978;18.066;2023-06-14T13:07:53;97366.56;;;23.51;43.29